createdAt,value
2023-04-20T00:00:17.100Z,10.27
2023-04-20T00:03:04.550Z,9.02
2023-04-20T00:05:33.033Z,9.73
2023-04-20T00:08:02.197Z,10.25
2023-04-20T00:10:29.865Z,10.35
2023-04-20T00:12:57.254Z,10.00
2023-04-20T00:15:24.970Z,10.43
2023-04-20T00:17:52.744Z,10.43
2023-04-20T00:20:20.750Z,10.45
2023-04-20T00:22:48.076Z,9.63
2023-04-20T00:25:17.594Z,10.30
2023-04-20T00:27:45.236Z,9.57
2023-04-20T00:30:14.354Z,10.70
2023-04-20T00:32:41.732Z,10.27
2023-04-20T00:35:10.126Z,10.98
2023-04-20T00:37:37.517Z,11.68
2023-04-20T00:40:06.701Z,12.57
2023-04-20T00:42:35.499Z,10.98
2023-04-20T00:45:03.404Z,11.13
2023-04-20T00:47:30.796Z,10.60
2023-04-20T00:49:58.784Z,10.63
2023-04-20T00:52:26.062Z,10.57
2023-04-20T00:54:53.734Z,11.38
2023-04-20T00:57:22.346Z,10.07
2023-04-20T00:59:51.742Z,9.80
2023-04-20T01:02:19.298Z,10.18
2023-04-20T01:04:47.621Z,10.18
2023-04-20T01:07:15.094Z,10.23
2023-04-20T01:09:42.599Z,10.18
2023-04-20T01:12:10.508Z,10.45
2023-04-20T01:14:38.191Z,10.52
2023-04-20T01:17:07.709Z,11.18
2023-04-20T01:19:35.458Z,10.30
2023-04-20T01:22:02.714Z,10.85
2023-04-20T01:24:31.820Z,11.00
2023-04-20T01:26:59.275Z,10.45
2023-04-20T01:29:27.749Z,12.25
2023-04-20T01:31:55.219Z,11.02
2023-04-20T01:34:22.854Z,11.30
2023-04-20T01:36:50.293Z,11.68
2023-04-20T01:39:18.762Z,12.48
2023-04-20T01:41:47.901Z,11.13
2023-04-20T01:44:15.824Z,10.65
2023-04-20T01:46:43.178Z,11.52
2023-04-20T01:49:10.899Z,11.65
2023-04-20T01:51:38.067Z,11.68
2023-04-20T01:54:05.820Z,12.90
2023-04-20T01:56:33.101Z,12.95
2023-04-20T01:59:02.253Z,12.57
2023-04-20T02:01:29.548Z,13.15
2023-04-20T02:03:58.555Z,11.65
2023-04-20T02:06:26.028Z,10.98
2023-04-20T02:08:53.941Z,11.73
2023-04-20T02:11:21.166Z,11.60
2023-04-20T02:13:49.068Z,11.80
2023-04-20T02:16:18.191Z,11.20
2023-04-20T02:18:45.755Z,10.45
2023-04-20T02:21:13.098Z,11.80
2023-04-20T02:23:40.960Z,10.00
2023-04-20T02:26:08.108Z,10.73
2023-04-20T02:28:35.986Z,11.23
2023-04-20T02:31:03.474Z,11.57
2023-04-20T02:33:32.748Z,11.75
2023-04-20T02:36:00.110Z,11.15
2023-04-20T02:38:27.623Z,10.57
2023-04-20T02:40:54.941Z,11.95
2023-04-20T02:43:22.628Z,11.75
2023-04-20T02:45:49.913Z,11.93
2023-04-20T02:48:17.493Z,12.40
2023-04-20T02:50:46.075Z,12.50
2023-04-20T02:53:13.559Z,11.73
2023-04-20T02:55:40.815Z,11.73
2023-04-20T02:58:08.213Z,12.65
2023-04-20T03:00:35.471Z,12.93
2023-04-20T03:03:03.694Z,12.02
2023-04-20T03:05:30.991Z,11.40
2023-04-20T03:08:00.179Z,11.40
2023-04-20T03:10:27.347Z,12.25
2023-04-20T03:12:54.857Z,11.48
2023-04-20T03:15:22.052Z,11.18
2023-04-20T03:17:49.550Z,10.82
2023-04-20T03:20:16.837Z,11.48
2023-04-20T03:22:44.344Z,10.57
2023-04-20T03:25:13.056Z,11.07
2023-04-20T03:27:40.574Z,10.73
2023-04-20T03:30:09.184Z,9.65
2023-04-20T03:32:37.013Z,11.35
2023-04-20T03:35:07.784Z,11.27
2023-04-20T03:37:36.123Z,10.60
2023-04-20T03:40:03.364Z,10.70
2023-04-20T03:42:32.899Z,10.73
2023-04-20T03:45:00.150Z,10.60
2023-04-20T03:47:27.714Z,11.43
2023-04-20T03:49:55.087Z,11.60
2023-04-20T03:52:22.758Z,11.05
2023-04-20T03:54:50.046Z,11.13
2023-04-20T03:57:17.658Z,10.75
2023-04-20T03:59:46.319Z,11.30
2023-04-20T04:02:13.970Z,11.20
2023-04-20T04:04:41.840Z,11.13
2023-04-20T04:07:09.780Z,11.25
2023-04-20T04:09:37.054Z,12.13
2023-04-20T04:12:05.402Z,12.55
2023-04-20T04:14:32.861Z,12.30
2023-04-20T04:17:02.057Z,13.35
2023-04-20T04:19:29.315Z,13.30
2023-04-20T04:21:57.125Z,14.40
2023-04-20T04:24:24.415Z,15.13
2023-04-20T04:26:51.949Z,11.27
2023-04-20T04:29:19.312Z,12.70
2023-04-20T04:31:47.024Z,11.23
2023-04-20T04:34:15.919Z,12.18
2023-04-20T04:36:43.456Z,10.05
2023-04-20T04:39:10.756Z,11.30
2023-04-20T04:41:38.264Z,11.25
2023-04-20T04:44:05.521Z,10.65
2023-04-20T04:46:33.207Z,11.85
2023-04-20T04:49:00.539Z,12.25
2023-04-20T04:51:29.564Z,11.55
2023-04-20T04:53:56.964Z,11.25
2023-04-20T04:56:24.547Z,12.90
2023-04-20T04:58:51.809Z,11.60
2023-04-20T05:01:19.347Z,11.20
2023-04-20T05:03:46.838Z,11.90
2023-04-20T05:06:14.433Z,10.82
2023-04-20T05:08:44.006Z,11.35
2023-04-20T05:11:11.661Z,11.95
2023-04-20T05:13:38.984Z,11.57
2023-04-20T05:18:34.439Z,11.98
2023-04-20T05:21:02.112Z,11.38
2023-04-20T05:23:29.274Z,11.63
2023-04-20T05:25:58.293Z,12.05
2023-04-20T05:28:26.032Z,12.18
2023-04-20T05:30:54.056Z,11.55
2023-04-20T05:33:21.607Z,11.55
2023-04-20T05:35:49.610Z,12.15
2023-04-20T05:38:17.052Z,11.88
2023-04-20T05:40:44.641Z,10.65
2023-04-20T05:43:13.328Z,11.02
2023-04-20T05:45:41.131Z,10.40
2023-04-20T05:48:08.466Z,10.73
2023-04-20T05:50:36.136Z,10.45
2023-04-20T05:53:03.357Z,10.27
2023-04-20T05:55:30.815Z,11.35
2023-04-20T05:57:58.059Z,12.07
2023-04-20T06:00:27.310Z,11.50
2023-04-20T06:02:54.672Z,10.85
2023-04-20T06:05:22.849Z,11.35
2023-04-20T06:07:50.099Z,10.95
2023-04-20T06:10:17.708Z,11.95
2023-04-20T06:12:44.957Z,12.05
2023-04-20T06:15:12.408Z,10.98
2023-04-20T06:17:41.533Z,11.77
2023-04-20T06:20:10.634Z,11.85
2023-04-20T06:22:41.902Z,10.98
2023-04-20T06:25:10.423Z,13.10
2023-04-20T06:27:37.675Z,12.07
2023-04-20T06:30:06.345Z,12.63
2023-04-20T06:32:36.710Z,13.32
2023-04-20T06:35:07.079Z,12.75
2023-04-20T06:37:35.406Z,12.07
2023-04-20T06:40:03.343Z,13.45
2023-04-20T06:42:30.616Z,13.10
2023-04-20T06:44:58.270Z,13.48
2023-04-20T06:47:25.573Z,12.85
2023-04-20T06:49:53.096Z,13.32
2023-04-20T06:52:21.807Z,13.60
2023-04-20T06:54:49.547Z,13.55
2023-04-20T06:57:16.996Z,13.80
2023-04-20T06:59:44.702Z,13.55
2023-04-20T07:02:11.954Z,13.45
2023-04-20T07:04:40.803Z,14.32
2023-04-20T07:07:08.103Z,13.85
2023-04-20T07:09:37.200Z,14.70
2023-04-20T07:12:04.645Z,14.38
2023-04-20T07:14:32.328Z,15.02
2023-04-20T07:16:59.517Z,15.07
2023-04-20T07:19:27.513Z,14.52
2023-04-20T07:21:55.040Z,14.57
2023-04-20T07:24:22.685Z,15.57
2023-04-20T07:26:51.452Z,15.15
2023-04-20T07:29:19.329Z,13.90
2023-04-20T07:31:46.851Z,14.68
2023-04-20T07:34:14.433Z,15.98
2023-04-20T07:36:41.666Z,15.85
2023-04-20T07:39:09.348Z,14.45
2023-04-20T07:41:36.992Z,14.20
2023-04-20T07:44:06.157Z,13.35
2023-04-20T07:46:33.344Z,15.15
2023-04-20T07:49:01.103Z,14.30
2023-04-20T07:51:28.359Z,15.15
2023-04-20T07:53:56.302Z,13.60
2023-04-20T07:56:23.482Z,14.48
2023-04-20T07:58:51.224Z,14.57
2023-04-20T08:01:24.113Z,15.13
2023-04-20T08:04:10.670Z,14.73
2023-04-20T08:06:39.740Z,14.95
2023-04-20T08:09:07.368Z,15.70
2023-04-20T08:11:35.118Z,15.80
2023-04-20T08:14:02.693Z,16.40
2023-04-20T08:16:31.485Z,15.82
2023-04-20T08:18:59.201Z,16.42
2023-04-20T08:21:26.451Z,16.50
2023-04-20T08:23:54.051Z,15.77
2023-04-20T08:26:21.267Z,15.05
2023-04-20T08:28:48.913Z,15.88
2023-04-20T08:31:16.153Z,16.00
2023-04-20T08:33:45.452Z,15.32
2023-04-20T08:36:12.881Z,14.95
2023-04-20T08:38:40.633Z,16.90
2023-04-20T08:41:08.113Z,16.85
2023-04-20T08:43:36.402Z,15.30
2023-04-20T08:46:03.571Z,15.48
2023-04-20T08:48:35.433Z,15.80
2023-04-20T08:51:04.873Z,17.80
2023-04-20T08:53:33.096Z,17.35
2023-04-20T08:56:00.696Z,16.30
2023-04-20T08:58:31.120Z,16.50
2023-04-20T09:00:58.627Z,17.02
2023-04-20T09:03:33.303Z,15.98
2023-04-20T09:06:00.845Z,17.10
2023-04-20T09:08:37.379Z,17.15
2023-04-20T09:11:04.756Z,16.20
2023-04-20T09:13:32.454Z,18.25
2023-04-20T09:16:10.441Z,16.27
2023-04-20T09:18:38.850Z,16.45
2023-04-20T09:21:09.879Z,16.50
2023-04-20T09:23:38.859Z,17.33
2023-04-20T09:26:06.203Z,17.02
2023-04-20T09:28:37.731Z,16.63
2023-04-20T09:31:05.316Z,17.27
2023-04-20T09:33:32.894Z,16.65
2023-04-20T09:36:04.073Z,16.83
2023-04-20T09:38:31.850Z,16.92
2023-04-20T09:41:01.596Z,18.55
2023-04-20T09:43:30.181Z,17.17
2023-04-20T09:45:58.134Z,19.40
2023-04-20T09:48:25.844Z,17.63
2023-04-20T09:50:54.224Z,19.15
2023-04-20T09:53:21.768Z,18.27
2023-04-20T09:55:49.835Z,18.90
2023-04-20T09:58:20.550Z,20.27
2023-04-20T10:00:48.191Z,18.02
2023-04-20T10:03:18.355Z,18.75
2023-04-20T10:05:45.799Z,16.98
2023-04-20T10:08:13.512Z,17.15
2023-04-20T10:10:45.282Z,19.27
2023-04-20T10:13:12.930Z,16.00
2023-04-20T10:15:42.561Z,16.25
2023-04-20T10:18:21.138Z,18.08
2023-04-20T10:20:48.906Z,18.77
2023-04-20T10:23:16.856Z,17.35
2023-04-20T10:25:55.215Z,17.48
2023-04-20T10:28:22.889Z,16.45
2023-04-20T10:30:52.985Z,18.00
2023-04-20T10:33:20.571Z,17.50
2023-04-20T10:35:49.335Z,16.50
2023-04-20T10:38:28.391Z,16.20
2023-04-20T10:40:55.716Z,17.17
2023-04-20T10:43:23.441Z,16.15
2023-04-20T10:45:52.403Z,16.95
2023-04-20T10:48:20.333Z,17.45
2023-04-20T10:50:47.847Z,17.42
2023-04-20T10:53:20.286Z,16.75
2023-04-20T10:55:48.120Z,17.60
2023-04-20T10:58:22.304Z,16.33
2023-04-20T11:00:59.684Z,15.95
2023-04-20T11:03:28.855Z,14.50
2023-04-20T11:05:58.341Z,16.58
2023-04-20T11:08:36.932Z,16.92
2023-04-20T11:11:04.268Z,15.55
2023-04-20T11:13:32.099Z,15.80
2023-04-20T11:16:09.526Z,14.57
2023-04-20T11:18:37.198Z,15.55
2023-04-20T11:21:04.693Z,15.55
2023-04-20T11:23:38.283Z,15.48
2023-04-20T11:26:05.829Z,14.60
2023-04-20T11:28:33.709Z,14.93
2023-04-20T11:31:02.781Z,15.88
2023-04-20T11:33:32.390Z,13.75
2023-04-20T11:36:00.775Z,14.43
2023-04-20T11:38:30.042Z,15.57
2023-04-20T11:40:58.032Z,13.73
2023-04-20T11:43:25.640Z,14.18
2023-04-20T11:45:53.275Z,13.65
2023-04-20T11:48:22.339Z,13.65
2023-04-20T11:50:49.798Z,14.30
2023-04-20T11:53:17.493Z,13.38
2023-04-20T11:55:44.780Z,13.35
2023-04-20T11:58:12.428Z,13.52
2023-04-20T12:00:39.898Z,12.73
2023-04-20T12:03:07.798Z,13.57
2023-04-20T12:05:36.747Z,13.80
2023-04-20T12:08:04.928Z,14.90
2023-04-20T12:10:32.414Z,14.82
2023-04-20T12:13:00.217Z,13.57
2023-04-20T12:15:27.604Z,13.50
2023-04-20T12:17:55.376Z,13.65
2023-04-20T12:20:22.937Z,13.75
2023-04-20T12:22:52.055Z,12.30
2023-04-20T12:25:19.516Z,15.00
2023-04-20T12:27:48.219Z,12.63
2023-04-20T12:30:17.243Z,12.50
2023-04-20T12:32:45.018Z,12.35
2023-04-20T12:35:12.387Z,12.18
2023-04-20T12:37:40.302Z,11.68
2023-04-20T12:40:09.956Z,12.23
2023-04-20T12:42:37.668Z,15.05
2023-04-20T12:45:05.784Z,12.50
2023-04-20T12:47:33.562Z,13.43
2023-04-20T12:50:00.867Z,13.13
2023-04-20T12:52:28.688Z,12.43
2023-04-20T12:54:57.823Z,13.57
2023-04-20T12:57:27.094Z,12.57
2023-04-20T12:59:54.416Z,13.95
2023-04-20T13:02:22.284Z,13.52
2023-04-20T13:04:49.784Z,13.75
2023-04-20T13:07:17.616Z,13.65
2023-04-20T13:09:44.987Z,13.68
2023-04-20T13:12:13.225Z,12.90
2023-04-20T13:14:41.910Z,12.98
2023-04-20T13:17:09.697Z,12.45
2023-04-20T13:19:37.057Z,13.68
2023-04-20T13:22:04.973Z,12.98
2023-04-20T13:24:32.534Z,13.88
2023-04-20T13:27:00.315Z,13.00
2023-04-20T13:29:28.067Z,12.85
2023-04-20T13:31:57.744Z,13.85
2023-04-20T13:34:25.053Z,12.15
2023-04-20T13:36:52.954Z,11.77
2023-04-20T13:39:20.649Z,11.25
2023-04-20T13:41:48.745Z,10.93
2023-04-20T13:44:16.527Z,11.88
2023-04-20T13:46:45.473Z,11.48
2023-04-20T13:49:14.176Z,11.10
2023-04-20T13:51:42.276Z,10.90
2023-04-20T13:54:09.742Z,10.45
2023-04-20T13:56:37.497Z,11.90
2023-04-20T13:59:05.050Z,10.77
2023-04-20T14:01:32.781Z,11.98
2023-04-20T14:04:00.590Z,10.77
2023-04-20T14:06:29.977Z,10.45
2023-04-20T14:08:57.490Z,11.25
2023-04-20T14:11:25.308Z,12.13
2023-04-20T14:13:52.753Z,11.75
2023-04-20T14:16:20.479Z,11.38
2023-04-20T14:18:47.836Z,10.25
2023-04-20T14:21:15.484Z,11.57
2023-04-20T14:23:44.214Z,12.40
2023-04-20T14:26:11.950Z,12.57
2023-04-20T14:28:39.386Z,11.85
2023-04-20T14:31:07.326Z,11.55
2023-04-20T14:33:34.577Z,11.02
2023-04-20T14:36:02.352Z,11.35
2023-04-20T14:38:29.855Z,10.65
2023-04-20T14:40:59.282Z,10.18
2023-04-20T14:43:26.622Z,11.60
2023-04-20T14:45:54.366Z,11.23
2023-04-20T14:48:21.972Z,10.27
2023-04-20T14:50:49.666Z,11.43
2023-04-20T14:53:17.009Z,10.32
2023-04-20T14:55:44.743Z,11.35
2023-04-20T14:58:16.990Z,11.02
2023-04-20T15:00:45.018Z,11.07
2023-04-20T15:03:12.823Z,11.25
2023-04-20T15:05:40.855Z,10.95
2023-04-20T15:08:08.375Z,10.70
2023-04-20T15:10:37.954Z,11.40
2023-04-20T15:13:06.577Z,10.98
2023-04-20T15:15:47.756Z,10.25
2023-04-20T15:18:15.969Z,10.73
2023-04-20T15:20:43.811Z,10.90
2023-04-20T15:23:11.061Z,10.07
2023-04-20T15:25:38.938Z,10.38
2023-04-20T15:28:06.276Z,11.07
2023-04-20T15:30:35.890Z,10.25
2023-04-20T15:33:04.708Z,10.43
2023-04-20T15:35:33.403Z,10.73
2023-04-20T15:38:00.796Z,11.02
2023-04-20T15:40:28.639Z,11.38
2023-04-20T15:42:55.973Z,9.85
2023-04-20T15:45:23.978Z,9.77
2023-04-20T15:47:52.745Z,7.80
2023-04-20T15:50:20.597Z,7.07
2023-04-20T15:52:48.178Z,7.13
2023-04-20T15:55:16.101Z,6.18
2023-04-20T15:57:44.485Z,6.63
2023-04-20T16:00:13.832Z,6.07
2023-04-20T16:02:41.511Z,6.15
2023-04-20T16:05:11.259Z,5.00
2023-04-20T16:07:38.786Z,5.15
2023-04-20T16:10:08.109Z,3.90
2023-04-20T16:12:35.421Z,4.57
2023-04-20T16:15:03.609Z,3.92
2023-04-20T16:17:31.051Z,3.80
2023-04-20T16:19:58.890Z,3.45
2023-04-20T16:22:27.949Z,4.55
2023-04-20T16:24:55.682Z,3.97
2023-04-20T16:27:23.835Z,3.67
2023-04-20T16:29:51.645Z,3.55
2023-04-20T16:32:19.067Z,3.65
2023-04-20T16:34:46.878Z,3.63
2023-04-20T16:37:14.341Z,4.10
2023-04-20T16:39:43.847Z,4.00
2023-04-20T16:42:11.352Z,4.38
2023-04-20T16:44:41.569Z,4.32
2023-04-20T16:47:09.438Z,4.40
2023-04-20T16:49:37.195Z,4.63
2023-04-20T16:52:04.633Z,4.78
2023-04-20T16:54:32.464Z,4.72
2023-04-20T16:57:01.403Z,5.75
2023-04-20T16:59:29.159Z,5.35
2023-04-20T17:01:56.602Z,4.57
2023-04-20T17:04:24.368Z,4.88
2023-04-20T17:06:51.847Z,5.00
2023-04-20T17:09:19.776Z,4.53
2023-04-20T17:11:47.112Z,4.55
2023-04-20T17:14:16.325Z,5.00
2023-04-20T17:16:43.696Z,5.07
2023-04-20T17:19:11.503Z,4.95
2023-04-20T17:21:38.766Z,10.50
2023-04-20T17:24:06.763Z,28.27
2023-04-20T17:26:34.103Z,6.40
2023-04-20T17:29:01.839Z,6.45
2023-04-20T17:31:31.063Z,23.60
2023-04-20T17:33:58.988Z,11.32
2023-04-20T17:36:26.418Z,17.67
2023-04-20T17:38:54.376Z,6.20
2023-04-20T17:41:21.754Z,48.90
2023-04-20T17:43:51.045Z,48.42
2023-04-20T17:46:18.560Z,12.90
2023-04-20T17:48:47.711Z,17.20
2023-04-20T17:51:15.191Z,6.38
2023-04-20T17:53:42.984Z,8.23
2023-04-20T17:56:10.369Z,7.30
2023-04-20T17:58:38.198Z,6.32
2023-04-20T18:01:05.512Z,5.90
2023-04-20T18:03:33.509Z,6.65
2023-04-20T18:06:02.820Z,6.07
2023-04-20T18:08:30.643Z,5.70
2023-04-20T18:10:57.978Z,6.32
2023-04-20T18:13:25.932Z,5.88
2023-04-20T18:15:53.430Z,5.68
2023-04-20T18:18:21.317Z,6.57
2023-04-20T18:20:49.050Z,6.70
2023-04-20T18:23:18.360Z,6.15
2023-04-20T18:25:45.702Z,5.40
2023-04-20T18:28:13.600Z,6.43
2023-04-20T18:30:41.028Z,6.13
2023-04-20T18:33:08.871Z,5.65
2023-04-20T18:35:36.304Z,6.68
2023-04-20T18:38:04.220Z,7.47
2023-04-20T18:40:33.118Z,7.15
2023-04-20T18:43:00.971Z,6.28
2023-04-20T18:45:29.330Z,6.57
2023-04-20T18:47:57.448Z,6.15
2023-04-20T18:50:24.846Z,7.20
2023-04-20T18:52:52.755Z,7.53
2023-04-20T18:55:20.385Z,8.38
2023-04-20T18:57:49.800Z,7.88
2023-04-20T19:00:17.642Z,8.55
2023-04-20T19:02:45.583Z,8.82
2023-04-20T19:05:13.176Z,8.38
2023-04-20T19:07:41.007Z,8.10
2023-04-20T19:10:09.438Z,8.13
2023-04-20T19:12:37.249Z,8.52
2023-04-20T19:15:06.873Z,7.63
2023-04-20T19:17:35.497Z,7.43
2023-04-20T19:20:03.486Z,8.10
2023-04-20T19:22:31.431Z,7.35
2023-04-20T19:24:58.871Z,7.35
2023-04-20T19:27:27.036Z,8.20
2023-04-20T19:29:54.381Z,6.60
2023-04-20T19:32:23.950Z,7.60
2023-04-20T19:34:51.602Z,8.20
2023-04-20T19:37:19.405Z,8.63
2023-04-20T19:39:46.809Z,8.02
2023-04-20T19:42:14.691Z,7.82
2023-04-20T19:44:42.227Z,8.32
2023-04-20T19:47:10.059Z,7.95
2023-04-20T19:49:38.889Z,8.88
2023-04-20T19:52:07.032Z,8.55
2023-04-20T19:54:34.499Z,9.38
2023-04-20T19:57:02.455Z,8.98
2023-04-20T19:59:29.713Z,9.27
2023-04-20T20:01:58.330Z,8.68
2023-04-20T20:04:25.902Z,9.30
2023-04-20T20:06:55.272Z,9.25
2023-04-20T20:09:24.167Z,9.18
2023-04-20T20:11:52.214Z,8.98
2023-04-20T20:14:20.133Z,8.07
2023-04-20T20:16:48.531Z,8.40
2023-04-20T20:19:16.797Z,8.75
2023-04-20T20:21:44.730Z,8.95
2023-04-20T20:24:13.382Z,9.20
2023-04-20T20:26:41.130Z,8.75
2023-04-20T20:29:08.773Z,8.25
2023-04-20T20:31:36.419Z,9.52
2023-04-20T20:34:03.829Z,9.02
2023-04-20T20:36:31.527Z,10.73
2023-04-20T20:38:58.903Z,9.25
2023-04-20T20:41:28.244Z,10.10
2023-04-20T20:43:55.745Z,9.70
2023-04-20T20:46:23.529Z,9.30
2023-04-20T20:48:50.826Z,9.38
2023-04-20T20:51:18.535Z,8.70
2023-04-20T20:53:45.977Z,9.10
2023-04-20T20:56:13.648Z,9.30
2023-04-20T20:58:43.367Z,8.93
2023-04-20T21:01:11.426Z,9.98
2023-04-20T21:03:39.203Z,9.32
2023-04-20T21:06:07.684Z,7.93
2023-04-20T21:08:35.044Z,8.68
2023-04-20T21:11:02.867Z,8.88
2023-04-20T21:13:30.331Z,8.43
2023-04-20T21:15:59.603Z,7.10
2023-04-20T21:18:26.977Z,7.18
2023-04-20T21:20:54.981Z,9.02
2023-04-20T21:23:22.546Z,7.38
2023-04-20T21:25:50.372Z,7.95
2023-04-20T21:28:17.681Z,7.38
2023-04-20T21:30:45.591Z,7.00
2023-04-20T21:33:14.769Z,8.57
2023-04-20T21:35:42.794Z,7.30
2023-04-20T21:38:10.168Z,8.35
2023-04-20T21:40:37.898Z,7.50
2023-04-20T21:43:05.353Z,8.48
2023-04-20T21:45:33.334Z,8.82
2023-04-20T21:48:00.674Z,7.85
2023-04-20T21:50:30.047Z,7.70
2023-04-20T21:52:57.540Z,8.35
2023-04-20T21:55:25.235Z,8.45
2023-04-20T21:57:52.624Z,7.45
2023-04-20T22:00:20.858Z,8.25
2023-04-20T22:02:50.069Z,7.32
2023-04-20T22:05:18.611Z,7.90
2023-04-20T22:07:47.538Z,7.28
2023-04-20T22:10:15.383Z,9.13
2023-04-20T22:12:42.681Z,8.20
2023-04-20T22:15:12.254Z,7.97
2023-04-20T22:17:40.213Z,9.18
2023-04-20T22:20:10.165Z,7.30
2023-04-20T22:22:38.611Z,8.32
2023-04-20T22:25:09.222Z,7.95
2023-04-20T22:27:36.790Z,7.53
2023-04-20T22:30:05.553Z,8.40
2023-04-20T22:32:33.058Z,7.97
2023-04-20T22:35:00.801Z,8.82
2023-04-20T22:37:28.199Z,7.45
2023-04-20T22:39:55.940Z,7.20
2023-04-20T22:42:24.870Z,6.95
2023-04-20T22:44:52.588Z,7.18
2023-04-20T22:47:19.909Z,6.85
2023-04-20T22:49:47.631Z,7.40
2023-04-20T22:52:15.052Z,6.45
2023-04-20T22:54:42.817Z,6.60
2023-04-20T22:57:10.068Z,6.80
2023-04-20T22:59:39.100Z,5.80
2023-04-20T23:02:06.585Z,5.65
2023-04-20T23:04:34.388Z,6.85
2023-04-20T23:07:01.879Z,6.10
2023-04-20T23:09:29.509Z,6.00
2023-04-20T23:11:56.803Z,7.75
2023-04-20T23:14:24.844Z,6.20
2023-04-20T23:16:54.006Z,5.32
2023-04-20T23:19:21.841Z,8.00
2023-04-20T23:21:49.233Z,6.05
2023-04-20T23:24:17.030Z,6.10
2023-04-20T23:26:44.440Z,7.00
2023-04-20T23:29:12.585Z,6.40
2023-04-20T23:31:39.984Z,7.20
2023-04-20T23:34:09.142Z,6.43
2023-04-20T23:36:36.635Z,6.30
2023-04-20T23:39:04.735Z,6.00
2023-04-20T23:41:32.210Z,5.88
2023-04-20T23:44:00.210Z,6.70
2023-04-20T23:46:27.675Z,6.07
2023-04-20T23:48:55.744Z,5.63
2023-04-20T23:51:24.406Z,6.68
2023-04-20T23:53:52.144Z,7.10
2023-04-20T23:56:19.371Z,8.82
2023-04-20T23:58:47.197Z,8.63
